地図

経路データ

SID SEASON NUMBER BASIN SUBBASIN NAME ISO_TIME NATURE LAT LON WMO_WIND WMO_PRES WMO_AGENCY TRACK_TYPE DIST2LAND LANDFALL IFLAG USA_AGENCY USA_ATCF_ID USA_LAT USA_LON USA_RECORD USA_STATUS USA_WIND USA_PRES USA_SSHS USA_R34_NE USA_R34_SE USA_R34_SW USA_R34_NW USA_R50_NE USA_R50_SE USA_R50_SW USA_R50_NW USA_R64_NE USA_R64_SE USA_R64_SW USA_R64_NW USA_POCI USA_ROCI USA_RMW USA_EYE TOKYO_LAT TOKYO_LON TOKYO_GRADE TOKYO_WIND TOKYO_PRES TOKYO_R50_DIR TOKYO_R50_LONG TOKYO_R50_SHORT TOKYO_R30_DIR TOKYO_R30_LONG TOKYO_R30_SHORT TOKYO_LAND CMA_LAT CMA_LON CMA_CAT CMA_WIND CMA_PRES HKO_LAT HKO_LON HKO_CAT HKO_WIND HKO_PRES NEWDELHI_LAT NEWDELHI_LON NEWDELHI_GRADE NEWDELHI_WIND NEWDELHI_PRES NEWDELHI_CI NEWDELHI_DP NEWDELHI_POCI REUNION_LAT REUNION_LON REUNION_TYPE REUNION_WIND REUNION_PRES REUNION_TNUM REUNION_CI REUNION_RMW REUNION_R34_NE REUNION_R34_SE REUNION_R34_SW REUNION_R34_NW REUNION_R50_NE REUNION_R50_SE REUNION_R50_SW REUNION_R50_NW REUNION_R64_NE REUNION_R64_SE REUNION_R64_SW REUNION_R64_NW BOM_LAT BOM_LON BOM_TYPE BOM_WIND BOM_PRES BOM_TNUM BOM_CI BOM_RMW BOM_R34_NE BOM_R34_SE BOM_R34_SW BOM_R34_NW BOM_R50_NE BOM_R50_SE BOM_R50_SW BOM_R50_NW BOM_R64_NE BOM_R64_SE BOM_R64_SW BOM_R64_NW BOM_ROCI BOM_POCI BOM_EYE BOM_POS_METHOD BOM_PRES_METHOD NADI_LAT NADI_LON NADI_CAT NADI_WIND NADI_PRES WELLINGTON_LAT WELLINGTON_LON WELLINGTON_WIND WELLINGTON_PRES DS824_LAT DS824_LON DS824_STAGE DS824_WIND DS824_PRES TD9636_LAT TD9636_LON TD9636_STAGE TD9636_WIND TD9636_PRES TD9635_LAT TD9635_LON TD9635_WIND TD9635_PRES TD9635_ROCI NEUMANN_LAT NEUMANN_LON NEUMANN_CLASS NEUMANN_WIND NEUMANN_PRES MLC_LAT MLC_LON MLC_CLASS MLC_WIND MLC_PRES USA_GUST BOM_GUST BOM_GUST_PER REUNION_GUST REUNION_GUST_PER USA_SEAHGT USA_SEARAD_NE USA_SEARAD_SE USA_SEARAD_SW USA_SEARAD_NW STORM_SPEED STORM_DIR
1861226N21290 1861 20 NA NA NOT_NAMED 1861-08-13 12:00:00 TS 20.5000 -70.0000 40 hurdat_atl main 98 91 O_____________ hurdat_atl AL021861 20.5000 -70.0000 TS 40 0 15 290
1861226N21290 1861 20 NA NA NOT_NAMED 1861-08-13 15:00:00 TS 20.7507 -70.7495 main 111 111 P_____________ AL021861 20.7507 -70.7495 TS 40 0 15 290
1861226N21290 1861 20 NA NA NOT_NAMED 1861-08-13 18:00:00 TS 21.0000 -71.5000 40 hurdat_atl main 134 82 O_____________ hurdat_atl AL021861 21.0000 -71.5000 TS 40 0 15 290
1861226N21290 1861 20 NA NA NOT_NAMED 1861-08-13 21:00:00 TS 21.2497 -72.2503 main 72 30 P_____________ AL021861 21.2497 -72.2503 TS 45 0 15 290
1861226N21290 1861 20 NA NA NOT_NAMED 1861-08-14 00:00:00 TS 21.5000 -73.0000 50 hurdat_atl main 33 33 O_____________ hurdat_atl AL021861 21.5000 -73.0000 TS 50 0 15 290
1861226N21290 1861 20 NA NA NOT_NAMED 1861-08-14 03:00:00 TS 21.7497 -73.7503 main 67 67 P_____________ AL021861 21.7497 -73.7503 TS 55 0 15 290
1861226N21290 1861 20 NA NA NOT_NAMED 1861-08-14 06:00:00 TS 22.0000 -74.5000 60 hurdat_atl main 130 130 O_____________ hurdat_atl AL021861 22.0000 -74.5000 TS 60 0 15 290
1861226N21290 1861 20 NA NA NOT_NAMED 1861-08-14 09:00:00 TS 22.2573 -75.2576 main 148 140 P_____________ AL021861 22.2573 -75.2576 TS 65 1 15 290
1861226N21290 1861 20 NA NA NOT_NAMED 1861-08-14 12:00:00 TS 22.5000 -76.0000 70 hurdat_atl main 144 118 O_____________ hurdat_atl AL021861 22.5000 -76.0000 HU 70 1 14 289
1861226N21290 1861 20 NA NA NOT_NAMED 1861-08-14 15:00:00 TS 22.7147 -76.7152 main 119 115 P_____________ AL021861 22.7147 -76.7152 HU 70 1 14 287
1861226N21290 1861 20 NA NA NOT_NAMED 1861-08-14 18:00:00 TS 22.9000 -77.4000 70 hurdat_atl main 117 88 O_____________ hurdat_atl AL021861 22.9000 -77.4000 HU 70 1 13 285
1861226N21290 1861 20 NA NA NOT_NAMED 1861-08-14 21:00:00 TS 23.0572 -78.0652 main 94 89 P_____________ AL021861 23.0572 -78.0652 HU 75 1 12 284
1861226N21290 1861 20 NA NA NOT_NAMED 1861-08-15 00:00:00 TS 23.2000 -78.7000 80 hurdat_atl main 100 73 O_____________ hurdat_atl AL021861 23.2000 -78.7000 HU 80 1 12 284
1861226N21290 1861 20 NA NA NOT_NAMED 1861-08-15 03:00:00 TS 23.3574 -79.3300 main 84 63 P_____________ AL021861 23.3574 -79.3300 HU 80 1 11 285
1861226N21290 1861 20 NA NA NOT_NAMED 1861-08-15 06:00:00 TS 23.5000 -79.9000 80 hurdat_atl main 67 67 O_____________ hurdat_atl AL021861 23.5000 -79.9000 HU 80 1 10 284
1861226N21290 1861 20 NA NA NOT_NAMED 1861-08-15 09:00:00 TS 23.6073 -80.3877 main 67 67 P_____________ AL021861 23.6073 -80.3877 HU 80 1 8 284
1861226N21290 1861 20 NA NA NOT_NAMED 1861-08-15 12:00:00 TS 23.7000 -80.8000 80 hurdat_atl main 78 73 O_____________ hurdat_atl AL021861 23.7000 -80.8000 HU 80 1 7 284
1861226N21290 1861 20 NA NA NOT_NAMED 1861-08-15 15:00:00 TS 23.7924 -81.1801 main 78 78 P_____________ AL021861 23.7924 -81.1801 HU 80 1 7 287
1861226N21290 1861 20 NA NA NOT_NAMED 1861-08-15 18:00:00 TS 23.9000 -81.5000 80 hurdat_atl main 89 89 O_____________ hurdat_atl AL021861 23.9000 -81.5000 HU 80 1 6 294
1861226N21290 1861 20 NA NA NOT_NAMED 1861-08-15 21:00:00 TS 24.0349 -81.7651 main 100 100 P_____________ AL021861 24.0349 -81.7651 HU 80 1 5 303
1861226N21290 1861 20 NA NA NOT_NAMED 1861-08-16 00:00:00 TS 24.2000 -82.0000 80 hurdat_atl main 122 122 O_____________ hurdat_atl AL021861 24.2000 -82.0000 HU 80 1 6 309
1861226N21290 1861 20 NA NA NOT_NAMED 1861-08-16 03:00:00 TS 24.3925 -82.2500 main 142 135 P_____________ AL021861 24.3925 -82.2500 HU 80 1 6 311
1861226N21290 1861 20 NA GM NOT_NAMED 1861-08-16 06:00:00 TS 24.6000 -82.5000 80 hurdat_atl main 147 147 O_____________ hurdat_atl AL021861 24.6000 -82.5000 HU 80 1 6 312
1861226N21290 1861 20 NA GM NOT_NAMED 1861-08-16 09:00:00 TS 24.8000 -82.7501 main 165 156 P_____________ AL021861 24.8000 -82.7501 HU 75 1 6 311
1861226N21290 1861 20 NA GM NOT_NAMED 1861-08-16 12:00:00 TS 25.0000 -83.0000 70 hurdat_atl main 164 164 O_____________ hurdat_atl AL021861 25.0000 -83.0000 HU 70 1 6 311
1861226N21290 1861 20 NA GM NOT_NAMED 1861-08-16 15:00:00 TS 25.2000 -83.2501 main 178 173 P_____________ AL021861 25.2000 -83.2501 HU 70 1 6 311
1861226N21290 1861 20 NA GM NOT_NAMED 1861-08-16 18:00:00 TS 25.4000 -83.5000 70 hurdat_atl main 187 187 O_____________ hurdat_atl AL021861 25.4000 -83.5000 HU 70 1 6 312
1861226N21290 1861 20 NA GM NOT_NAMED 1861-08-16 21:00:00 TS 25.6000 -83.7501 main 200 193 P_____________ AL021861 25.6000 -83.7501 HU 65 1 6 312
1861226N21290 1861 20 NA GM NOT_NAMED 1861-08-17 00:00:00 TS 25.8000 -84.0000 60 hurdat_atl main 202 202 O_____________ hurdat_atl AL021861 25.8000 -84.0000 TS 60 0 6 312
1861226N21290 1861 20 NA GM NOT_NAMED 1861-08-17 03:00:00 TS 26.0000 -84.2501 main 218 213 P_____________ AL021861 26.0000 -84.2501 TS 60 0 6 312
1861226N21290 1861 20 NA GM NOT_NAMED 1861-08-17 06:00:00 TS 26.2000 -84.5000 60 hurdat_atl main 224 224 O_____________ hurdat_atl AL021861 26.2000 -84.5000 TS 60 0 6 312
1861226N21290 1861 20 NA GM NOT_NAMED 1861-08-17 09:00:00 TS 26.3999 -84.7426 main 231 231 P_____________ AL021861 26.3999 -84.7426 TS 55 0 6 312
1861226N21290 1861 20 NA GM NOT_NAMED 1861-08-17 12:00:00 TS 26.6000 -85.0000 50 hurdat_atl main 250 250 O_____________ hurdat_atl AL021861 26.6000 -85.0000 TS 50 0 6 309
1861226N21290 1861 20 NA GM NOT_NAMED 1861-08-17 15:00:00 TS 26.8002 -85.2897 main 266 266 P_____________ AL021861 26.8002 -85.2897 TS 50 0 7 307
1861226N21290 1861 20 NA GM NOT_NAMED 1861-08-17 18:00:00 TS 27.0000 -85.6000 50 hurdat_atl main 284 O_____________ hurdat_atl AL021861 27.0000 -85.6000 TS 50 0 7 306

IBTrACS Databaseについて

本データベースは、米国NOAAが公開する1842年以降の世界の熱帯低気圧のベストトラックデータアーカイブInternational Best Track Archive for Climate Stewardship (IBTrACS)を、ウェブで閲覧しやすい形式に変換したものです。

最終更新日:2021-11-26